Portada
METAR-TAF:

METAR-TAF

Aeroports :

Charleroi, Bèlgica

latitud: 50-28N, longitud: 004-27E, altitud: 187 m

Observació

L'informe es va fer fa 27 minuts, a les 20:20 UTC
Vent 9 kt del Nord-Est
Temperatura 20°C
Humitat 43%
Pressió 1019 hPa
Visibilitat 10 km o més
sense núvols per sota de 1500 mi sense presència de cumulonimbus.

METAR: EBCI 012020Z AUTO 05009KT CAVOK 20/07 Q1019

Hora: 22:47 (20:47 UTC)

Pronòstic

L'informe es va fer fa 3 hores i 37 minuts, a les 17:10 UTC
Pronòstic vàlid del 01 a les 18 UTC al 02 a les 24 UTC
Vent 8 kt del Nord-Est
Visibilitat 10 km o més
sense núvols per sota de 1500 mi sense presència de cumulonimbus.
Probabilitat 40%
l' 02 a les 16 UTC al 02 a les 19 UTC
Vent 10 kt del Nord/Nord-Oest

TAF: EBCI 011710Z 0118/0224 04008KT CAVOK PROB40 0216/0219 33010KT

Observacions i pronòstics meteorològics de més de 4000 aeroports (METAR i TAF).

Les estacions disponibles són els punts grocs i vermells al mapa.

Posi el ratolí al punt desitjat per veure el nom de l'estació.

Feu clic per veure les observacions i els pronòstics meteorològics.

Per canviar el mapa: feu clic els botons verds amb una creu de color negre per apropar; al botó verd amb un guió per allunyar la imatge; o en les fletxes verdes per a mapes adjacents.


METAR-TAF: